createdAt,value
2023-04-25T00:00:22.040Z,50.849518
2023-04-25T00:01:21.989Z,50.849525
2023-04-25T00:02:22.014Z,50.849514
2023-04-25T00:03:22.318Z,50.849525
2023-04-25T00:04:22.176Z,50.849533
2023-04-25T00:05:22.037Z,50.849533
2023-04-25T00:06:21.976Z,50.849483
2023-04-25T00:07:21.918Z,50.849499
2023-04-25T00:08:21.910Z,50.849506
2023-04-25T00:09:21.910Z,50.849495
2023-04-25T00:10:21.892Z,50.849506
2023-04-25T00:11:21.894Z,50.849514
2023-04-25T00:12:21.898Z,50.849533
2023-04-25T00:13:21.893Z,50.849541
2023-04-25T00:14:21.872Z,50.849468
2023-04-25T00:15:21.872Z,50.849506
2023-04-25T00:16:21.946Z,50.849510
2023-04-25T00:17:21.909Z,50.849529
2023-04-25T00:18:21.865Z,50.849522
2023-04-25T00:19:21.818Z,50.849529
2023-04-25T00:20:21.810Z,50.849522
2023-04-25T00:21:21.799Z,50.849525
2023-04-25T00:22:21.818Z,50.849518
2023-04-25T00:23:21.813Z,50.849525
2023-04-25T00:24:21.844Z,50.849510
2023-04-25T00:25:21.781Z,50.849514
2023-04-25T00:26:21.771Z,50.849506
2023-04-25T00:27:21.750Z,50.849506
2023-04-25T00:28:21.813Z,50.849514
2023-04-25T00:29:22.377Z,50.849525
2023-04-25T00:30:21.841Z,50.849514
2023-04-25T00:31:21.764Z,50.849548
2023-04-25T00:32:21.721Z,50.849525
2023-04-25T00:33:21.695Z,50.849548
2023-04-25T00:34:21.728Z,50.849514
2023-04-25T00:35:21.706Z,50.849491
2023-04-25T00:36:21.710Z,50.849480
2023-04-25T00:37:21.669Z,50.849457
2023-04-25T00:38:21.670Z,50.849445
2023-04-25T00:39:21.649Z,50.849483
2023-04-25T00:40:21.656Z,50.849506
2023-04-25T00:41:21.642Z,50.849499
2023-04-25T00:42:21.676Z,50.849556
2023-04-25T00:43:21.643Z,50.849518
2023-04-25T00:44:21.619Z,50.849472
2023-04-25T00:45:21.607Z,50.849499
2023-04-25T00:46:21.623Z,50.849495
2023-04-25T00:47:21.615Z,50.849506
2023-04-25T00:48:21.618Z,50.849514
2023-04-25T00:49:21.606Z,50.849518
2023-04-25T00:50:21.567Z,50.849503
2023-04-25T00:51:21.570Z,50.849541
2023-04-25T00:52:21.562Z,50.849510
2023-04-25T00:53:21.544Z,50.849545
2023-04-25T00:54:21.556Z,50.849529
2023-04-25T00:55:21.519Z,50.849541
2023-04-25T00:56:21.514Z,50.849548
2023-04-25T00:57:21.525Z,50.849545
2023-04-25T00:58:21.506Z,50.849522
2023-04-25T00:59:21.500Z,50.849510
2023-04-25T01:00:21.529Z,50.849529
2023-04-25T01:01:21.566Z,50.849525
2023-04-25T01:02:21.548Z,50.849548
2023-04-25T01:03:21.573Z,50.849525
2023-04-25T01:04:21.647Z,50.849545
2023-04-25T01:05:21.442Z,50.849541
2023-04-25T01:06:21.462Z,50.849533
2023-04-25T01:07:21.434Z,50.849541
2023-04-25T01:08:21.463Z,50.849533
2023-04-25T01:09:21.402Z,50.849545
2023-04-25T01:10:21.404Z,50.849537
2023-04-25T01:11:21.402Z,50.849518
2023-04-25T01:12:21.426Z,50.849548
2023-04-25T01:13:21.374Z,50.849533
2023-04-25T01:14:21.400Z,50.849522
2023-04-25T01:15:21.366Z,50.849525
2023-04-25T01:16:21.411Z,50.849548
2023-04-25T01:17:21.343Z,50.849537
2023-04-25T01:18:21.363Z,50.849522
2023-04-25T01:19:21.361Z,50.849514
2023-04-25T01:20:21.328Z,50.849510
2023-04-25T01:21:21.310Z,50.849522
2023-04-25T01:22:21.319Z,50.849545
2023-04-25T01:23:21.358Z,50.849617
2023-04-25T01:24:21.297Z,50.849548
2023-04-25T01:25:21.270Z,50.849537
2023-04-25T01:26:21.305Z,50.849503
2023-04-25T01:27:21.258Z,50.849514
2023-04-25T01:28:21.259Z,50.849514
2023-04-25T01:29:21.281Z,50.849514
2023-04-25T01:30:21.236Z,50.849525
2023-04-25T01:31:21.292Z,50.849522
2023-04-25T01:32:21.303Z,50.849518
2023-04-25T01:33:21.234Z,50.849525
2023-04-25T01:34:21.306Z,50.849529
2023-04-25T01:35:21.223Z,50.849518
2023-04-25T01:36:21.212Z,50.849514
2023-04-25T01:37:21.236Z,50.849533
2023-04-25T01:38:21.193Z,50.849529
2023-04-25T01:39:21.169Z,50.849518
2023-04-25T01:40:21.162Z,50.849522
2023-04-25T01:41:21.506Z,50.849533
2023-04-25T01:42:21.146Z,50.849522
2023-04-25T01:43:21.125Z,50.849510
2023-04-25T01:44:21.127Z,50.849556
2023-04-25T01:45:21.176Z,50.849529
2023-04-25T01:46:21.184Z,50.849518
2023-04-25T01:47:21.195Z,50.849506
2023-04-25T01:48:21.092Z,50.849506
2023-04-25T01:49:21.072Z,50.849522
2023-04-25T01:50:21.105Z,50.849522
2023-04-25T01:51:21.172Z,50.849499
2023-04-25T01:52:21.067Z,50.849548
2023-04-25T01:53:21.099Z,50.849556
2023-04-25T01:54:21.034Z,50.849537
2023-04-25T01:55:21.080Z,50.849525
2023-04-25T01:56:21.037Z,50.849537
2023-04-25T01:57:21.009Z,50.849525
2023-04-25T01:58:21.007Z,50.849529
2023-04-25T01:59:21.032Z,50.849548
2023-04-25T02:00:21.000Z,50.849545
2023-04-25T02:01:21.017Z,50.849564
2023-04-25T02:02:21.078Z,50.849518
2023-04-25T02:03:21.082Z,50.849537
2023-04-25T02:04:21.063Z,50.849514
2023-04-25T02:05:20.969Z,50.849518
2023-04-25T02:06:20.953Z,50.849533
2023-04-25T02:07:20.957Z,50.849545
2023-04-25T02:08:20.939Z,50.849525
2023-04-25T02:09:20.926Z,50.849525
2023-04-25T02:10:20.910Z,50.849522
2023-04-25T02:11:20.968Z,50.849522
2023-04-25T02:12:20.906Z,50.849541
2023-04-25T02:13:20.903Z,50.849514
2023-04-25T02:14:20.882Z,50.849541
2023-04-25T02:15:20.859Z,50.849545
2023-04-25T02:16:20.928Z,50.849548
2023-04-25T02:17:20.853Z,50.849525
2023-04-25T02:18:20.968Z,50.849525
2023-04-25T02:19:20.858Z,50.849514
2023-04-25T02:20:20.881Z,50.849514
2023-04-25T02:21:20.811Z,50.849522
2023-04-25T02:22:20.828Z,50.849506
2023-04-25T02:23:20.807Z,50.849499
2023-04-25T02:24:20.818Z,50.849503
2023-04-25T02:25:20.863Z,50.849510
2023-04-25T02:26:20.792Z,50.849487
2023-04-25T02:27:20.784Z,50.849483
2023-04-25T02:28:20.788Z,50.849499
2023-04-25T02:29:20.755Z,50.849461
2023-04-25T02:30:20.765Z,50.849499
2023-04-25T02:31:20.849Z,50.849518
2023-04-25T02:32:20.884Z,50.849518
2023-04-25T02:33:20.725Z,50.849491
2023-04-25T02:34:20.743Z,50.849548
2023-04-25T02:35:20.720Z,50.849548
2023-04-25T02:36:20.718Z,50.849560
2023-04-25T02:37:20.739Z,50.849518
2023-04-25T02:38:20.714Z,50.849525
2023-04-25T02:39:20.695Z,50.849567
2023-04-25T02:40:20.699Z,50.849514
2023-04-25T02:41:20.674Z,50.849491
2023-04-25T02:42:20.676Z,50.849545
2023-04-25T02:43:20.689Z,50.849541
2023-04-25T02:44:20.660Z,50.849564
2023-04-25T02:45:20.678Z,50.849442
2023-04-25T02:46:32.071Z,50.849472
2023-04-25T02:47:21.740Z,50.849487
2023-04-25T02:48:20.639Z,50.849510
2023-04-25T02:49:20.660Z,50.849537
2023-04-25T02:50:20.633Z,50.849525
2023-04-25T02:51:20.595Z,50.849506
2023-04-25T02:52:20.599Z,50.849522
2023-04-25T02:53:20.574Z,50.849522
2023-04-25T02:54:20.600Z,50.849491
2023-04-25T02:55:20.620Z,50.849522
2023-04-25T02:56:20.573Z,50.849476
2023-04-25T02:57:20.545Z,50.849461
2023-04-25T02:58:20.540Z,50.849518
2023-04-25T02:59:20.557Z,50.849491
2023-04-25T03:00:20.537Z,50.849518
2023-04-25T03:01:20.633Z,50.849495
2023-04-25T03:02:20.630Z,50.849499
2023-04-25T03:03:20.711Z,50.849468
2023-04-25T03:04:20.530Z,50.849464
2023-04-25T03:05:20.502Z,50.849483
2023-04-25T03:06:20.512Z,50.849453
2023-04-25T03:07:20.497Z,50.849483
2023-04-25T03:08:20.470Z,50.849476
2023-04-25T03:09:20.451Z,50.849499
2023-04-25T03:10:20.465Z,50.849499
2023-04-25T03:11:20.532Z,50.849487
2023-04-25T03:12:20.445Z,50.849537
2023-04-25T03:13:20.445Z,50.849503
2023-04-25T03:14:20.448Z,50.849468
2023-04-25T03:15:20.413Z,50.849495
2023-04-25T03:16:20.486Z,50.849514
2023-04-25T03:17:20.415Z,50.849503
2023-04-25T03:18:20.412Z,50.849483
2023-04-25T03:19:20.420Z,50.849442
2023-04-25T03:20:20.385Z,50.849445
2023-04-25T03:21:20.367Z,50.849464
2023-04-25T03:22:20.373Z,50.849426
2023-04-25T03:23:20.350Z,50.849468
2023-04-25T03:24:20.354Z,50.849476
2023-04-25T03:25:20.360Z,50.849510
2023-04-25T03:26:20.332Z,50.849503
2023-04-25T03:27:20.321Z,50.849495
2023-04-25T03:28:20.333Z,50.849491
2023-04-25T03:29:20.321Z,50.849503
2023-04-25T03:30:20.397Z,50.849491
2023-04-25T03:31:20.332Z,50.849525
2023-04-25T03:32:20.433Z,50.849506
2023-04-25T03:33:20.274Z,50.849453
2023-04-25T03:34:20.320Z,50.849476
2023-04-25T03:35:20.260Z,50.849487
2023-04-25T03:36:20.261Z,50.849514
2023-04-25T03:37:20.274Z,50.849480
2023-04-25T03:38:20.263Z,50.849468
2023-04-25T03:39:20.250Z,50.849442
2023-04-25T03:40:20.241Z,50.849472
2023-04-25T03:41:20.233Z,50.849487
2023-04-25T03:42:20.228Z,50.849518
2023-04-25T03:43:20.240Z,50.849506
2023-04-25T03:44:20.210Z,50.849510
2023-04-25T03:45:20.191Z,50.849537
2023-04-25T03:46:20.315Z,50.849529
2023-04-25T03:47:20.168Z,50.849518
2023-04-25T03:48:20.190Z,50.849430
2023-04-25T03:49:20.173Z,50.849495
2023-04-25T03:50:20.199Z,50.849476
2023-04-25T03:51:20.174Z,50.849499
2023-04-25T03:52:20.146Z,50.849503
2023-04-25T03:53:20.155Z,50.849522
2023-04-25T03:54:20.199Z,50.849506
2023-04-25T03:55:20.133Z,50.849499
2023-04-25T03:56:20.114Z,50.849503
2023-04-25T03:57:20.847Z,50.849506
2023-04-25T03:58:20.099Z,50.849453
2023-04-25T03:59:20.090Z,50.849461
2023-04-25T04:00:20.091Z,50.849457
2023-04-25T04:01:20.144Z,50.849468
2023-04-25T04:02:20.154Z,50.849468
2023-04-25T04:03:20.240Z,50.849472
2023-04-25T04:04:20.208Z,50.849495
2023-04-25T04:05:20.236Z,50.849499
2023-04-25T04:06:20.033Z,50.849510
2023-04-25T04:07:20.062Z,50.849510
2023-04-25T04:08:20.022Z,50.849537
2023-04-25T04:09:19.999Z,50.849541
2023-04-25T04:10:19.994Z,50.849545
2023-04-25T04:11:19.991Z,50.849560
2023-04-25T04:12:19.995Z,50.849571
2023-04-25T04:13:20.005Z,50.849556
2023-04-25T04:14:19.989Z,50.849545
2023-04-25T04:15:19.980Z,50.849503
2023-04-25T04:16:20.019Z,50.849487
2023-04-25T04:17:19.945Z,50.849506
2023-04-25T04:18:19.959Z,50.849503
2023-04-25T04:19:19.962Z,50.849495
2023-04-25T04:20:19.922Z,50.849510
2023-04-25T04:21:19.913Z,50.849480
2023-04-25T04:22:19.906Z,50.849522
2023-04-25T04:23:19.928Z,50.849499
2023-04-25T04:24:19.918Z,50.849529
2023-04-25T04:25:19.893Z,50.849514
2023-04-25T04:26:19.880Z,50.849510
2023-04-25T04:27:19.868Z,50.849525
2023-04-25T04:28:19.878Z,50.849510
2023-04-25T04:29:19.854Z,50.849487
2023-04-25T04:30:19.891Z,50.849499
2023-04-25T04:31:19.908Z,50.849483
2023-04-25T04:32:19.828Z,50.849503
2023-04-25T04:33:19.834Z,50.849487
2023-04-25T04:34:19.808Z,50.849487
2023-04-25T04:35:19.837Z,50.849480
2023-04-25T04:36:19.823Z,50.849503
2023-04-25T04:37:19.797Z,50.849503
2023-04-25T04:38:19.774Z,50.849514
2023-04-25T04:39:19.788Z,50.849487
2023-04-25T04:40:19.769Z,50.849487
2023-04-25T04:41:19.762Z,50.849476
2023-04-25T04:42:19.784Z,50.849518
2023-04-25T04:43:19.759Z,50.849514
2023-04-25T04:44:19.762Z,50.849529
2023-04-25T04:45:19.758Z,50.849529
2023-04-25T04:46:19.782Z,50.849514
2023-04-25T04:47:19.730Z,50.849514
2023-04-25T04:48:19.728Z,50.849541
2023-04-25T04:49:19.708Z,50.849537
2023-04-25T04:50:19.698Z,50.849541
2023-04-25T04:51:19.710Z,50.849556
2023-04-25T04:52:19.709Z,50.849548
2023-04-25T04:53:19.695Z,50.849556
2023-04-25T04:54:19.897Z,50.849560
2023-04-25T04:55:19.736Z,50.849548
2023-04-25T04:56:19.652Z,50.849552
2023-04-25T04:57:19.691Z,50.849548
2023-04-25T04:58:19.620Z,50.849556
2023-04-25T04:59:19.623Z,50.849548
2023-04-25T05:00:19.655Z,50.849567
2023-04-25T05:01:20.013Z,50.849552
2023-04-25T05:02:19.647Z,50.849541
2023-04-25T05:03:19.747Z,50.849548
2023-04-25T05:04:19.692Z,50.849552
2023-04-25T05:05:19.849Z,50.849541
2023-04-25T05:06:19.606Z,50.849529
2023-04-25T05:07:22.488Z,50.849541
2023-04-25T05:08:19.837Z,50.849548
2023-04-25T05:09:19.573Z,50.849545
2023-04-25T05:10:20.359Z,50.849548
2023-04-25T05:11:19.543Z,50.849525
2023-04-25T05:12:19.572Z,50.849525
2023-04-25T05:13:19.531Z,50.849537
2023-04-25T05:14:20.009Z,50.849529
2023-04-25T05:15:20.306Z,50.849522
2023-04-25T05:16:19.595Z,50.849548
2023-04-25T05:17:19.497Z,50.849529
2023-04-25T05:18:20.588Z,50.849518
2023-04-25T05:19:20.740Z,50.849499
2023-04-25T05:20:19.488Z,50.849533
2023-04-25T05:21:19.500Z,50.849548
2023-04-25T05:22:19.460Z,50.849525
2023-04-25T05:23:19.480Z,50.849522
2023-04-25T05:24:19.504Z,50.849510
2023-04-25T05:25:19.430Z,50.849522
2023-04-25T05:26:19.496Z,50.849537
2023-04-25T05:27:19.873Z,50.849537
2023-04-25T05:28:19.405Z,50.849552
2023-04-25T05:29:19.415Z,50.849537
2023-04-25T05:30:19.411Z,50.849541
2023-04-25T05:31:19.401Z,50.849552
2023-04-25T05:32:19.463Z,50.849552
2023-04-25T05:33:19.384Z,50.849556
2023-04-25T05:36:26.972Z,50.849533
2023-04-25T05:37:26.858Z,50.849491
2023-04-25T05:38:26.853Z,50.849518
2023-04-25T05:39:26.830Z,50.849548
2023-04-25T05:40:26.846Z,50.849518
2023-04-25T05:41:26.946Z,50.849522
2023-04-25T05:42:26.822Z,50.849499
2023-04-25T05:43:26.799Z,50.849476
2023-04-25T05:44:26.802Z,50.849522
2023-04-25T05:45:26.790Z,50.849503
2023-04-25T05:46:26.891Z,50.849552
2023-04-25T05:47:26.885Z,50.849537
2023-04-25T05:48:26.764Z,50.849525
2023-04-25T05:49:26.745Z,50.849552
2023-04-25T05:50:26.783Z,50.849533
2023-04-25T05:51:26.743Z,50.849552
2023-04-25T05:52:26.745Z,50.849560
2023-04-25T05:53:26.742Z,50.849510
2023-04-25T05:54:26.763Z,50.849552
2023-04-25T05:55:26.708Z,50.849525
2023-04-25T05:56:26.784Z,50.849533
2023-04-25T05:57:26.700Z,50.849564
2023-04-25T05:58:26.678Z,50.849537
2023-04-25T05:59:26.711Z,50.849552
2023-04-25T06:00:26.697Z,50.849476
2023-04-25T06:01:26.692Z,50.849541
2023-04-25T06:02:26.762Z,50.849545
2023-04-25T06:03:26.896Z,50.849579
2023-04-25T06:04:26.786Z,50.849602
2023-04-25T06:05:26.822Z,50.849602
2023-04-25T06:06:26.613Z,50.849590
2023-04-25T06:07:26.696Z,50.849552
2023-04-25T06:08:26.628Z,50.849571
2023-04-25T06:09:26.596Z,50.849602
2023-04-25T06:10:26.587Z,50.849567
2023-04-25T06:11:26.599Z,50.849571
2023-04-25T06:12:26.577Z,50.849560
2023-04-25T06:13:26.578Z,50.849564
2023-04-25T06:14:28.953Z,50.849514
2023-04-25T06:15:28.669Z,50.849552
2023-04-25T06:16:26.588Z,50.849541
2023-04-25T06:17:26.584Z,50.849545
2023-04-25T06:18:26.507Z,50.849548
2023-04-25T06:19:26.501Z,50.849548
2023-04-25T06:20:26.549Z,50.849522
2023-04-25T06:21:26.502Z,50.849522
2023-04-25T06:22:26.491Z,50.849533
2023-04-25T06:23:26.513Z,50.849529
2023-04-25T06:24:26.464Z,50.849564
2023-04-25T06:25:26.469Z,50.849564
2023-04-25T06:26:26.464Z,50.849537
2023-04-25T06:27:26.474Z,50.849548
2023-04-25T06:28:26.430Z,50.849564
2023-04-25T06:29:26.461Z,50.849571
2023-04-25T06:30:26.457Z,50.849548
2023-04-25T06:31:26.452Z,50.849586
2023-04-25T06:32:28.104Z,50.849564
2023-04-25T06:33:26.385Z,50.849571
2023-04-25T06:34:26.428Z,50.849556
2023-04-25T06:35:26.407Z,50.849571
2023-04-25T06:36:26.365Z,50.849586
2023-04-25T06:37:26.415Z,50.849606
2023-04-25T06:38:26.346Z,50.849594
2023-04-25T06:39:26.357Z,50.849541
2023-04-25T06:40:26.428Z,50.849571
2023-04-25T06:41:26.349Z,50.849552
2023-04-25T06:42:26.314Z,50.849552
2023-04-25T06:43:26.339Z,50.849556
2023-04-25T06:44:26.287Z,50.849541
2023-04-25T06:45:26.299Z,50.849575
2023-04-25T06:46:26.343Z,50.849529
2023-04-25T06:47:26.324Z,50.849533
2023-04-25T06:48:26.261Z,50.849503
2023-04-25T06:49:26.339Z,50.849514
2023-04-25T06:50:26.254Z,50.849525
2023-04-25T06:51:26.244Z,50.849514
2023-04-25T06:52:26.234Z,50.849525
2023-04-25T06:53:26.242Z,50.849556
2023-04-25T06:54:26.224Z,50.849575
2023-04-25T06:55:26.260Z,50.849552
2023-04-25T06:56:26.229Z,50.849560
2023-04-25T06:57:26.212Z,50.849545
2023-04-25T06:58:26.204Z,50.849560
2023-04-25T06:59:26.199Z,50.849522
2023-04-25T07:00:26.218Z,50.849537
2023-04-25T07:01:26.218Z,50.849564
2023-04-25T07:02:26.291Z,50.849533
2023-04-25T07:03:26.376Z,50.849522
2023-04-25T07:04:26.365Z,50.849533
2023-04-25T07:05:26.214Z,50.849533
2023-04-25T07:06:26.129Z,50.849541
2023-04-25T07:07:26.161Z,50.849548
2023-04-25T07:08:26.110Z,50.849541
2023-04-25T07:09:26.131Z,50.849514
2023-04-25T07:10:26.110Z,50.849552
2023-04-25T07:11:26.099Z,50.849529
2023-04-25T07:12:26.075Z,50.849514
2023-04-25T07:13:26.093Z,50.849541
2023-04-25T07:14:26.065Z,50.849560
2023-04-25T07:15:26.067Z,50.849556
2023-04-25T07:16:26.099Z,50.849545
2023-04-25T07:17:26.082Z,50.849533
2023-04-25T07:18:26.029Z,50.849529
2023-04-25T07:19:26.048Z,50.849564
2023-04-25T07:20:26.042Z,50.849533
2023-04-25T07:21:26.016Z,50.849522
2023-04-25T07:22:25.989Z,50.849495
2023-04-25T07:23:25.977Z,50.849518
2023-04-25T07:24:25.963Z,50.849548
2023-04-25T07:25:25.994Z,50.849556
2023-04-25T07:26:25.953Z,50.849529
2023-04-25T07:27:25.973Z,50.849541
2023-04-25T07:28:26.086Z,50.849560
2023-04-25T07:29:25.932Z,50.849556
2023-04-25T07:30:25.953Z,50.849560
2023-04-25T07:31:25.968Z,50.849560
2023-04-25T07:32:26.056Z,50.849560
2023-04-25T07:33:25.909Z,50.849552
2023-04-25T07:34:25.913Z,50.849541
2023-04-25T07:35:25.908Z,50.849560
2023-04-25T07:36:25.877Z,50.849556
2023-04-25T07:37:25.867Z,50.849552
2023-04-25T07:38:25.842Z,50.849548
2023-04-25T07:39:25.883Z,50.849541
2023-04-25T07:40:25.823Z,50.849537
2023-04-25T07:41:25.829Z,50.849537
2023-04-25T07:42:25.802Z,50.849514
2023-04-25T07:43:25.854Z,50.849533
2023-04-25T07:44:25.914Z,50.849537
2023-04-25T07:45:25.820Z,50.849499
2023-04-25T07:46:25.933Z,50.849506
2023-04-25T07:47:25.820Z,50.849522
2023-04-25T07:48:25.757Z,50.849552
2023-04-25T07:49:25.812Z,50.849571
2023-04-25T07:50:25.778Z,50.849545
2023-04-25T07:51:25.752Z,50.849541
2023-04-25T07:52:25.725Z,50.849571
2023-04-25T07:53:25.760Z,50.849537
2023-04-25T07:54:25.720Z,50.849537
2023-04-25T07:55:25.717Z,50.849552
2023-04-25T07:56:25.716Z,50.849545
2023-04-25T07:57:25.695Z,50.849556
2023-04-25T07:58:25.671Z,50.849545
2023-04-25T07:59:26.712Z,50.849575
2023-04-25T08:00:25.673Z,50.849533
2023-04-25T08:01:25.683Z,50.849529
2023-04-25T08:02:25.721Z,50.849506
2023-04-25T08:03:26.001Z,50.849548
2023-04-25T08:04:25.960Z,50.849545
2023-04-25T08:05:25.806Z,50.849537
2023-04-25T08:06:25.746Z,50.849533
2023-04-25T08:07:25.602Z,50.849480
2023-04-25T08:08:25.648Z,50.849525
2023-04-25T08:09:25.588Z,50.849579
2023-04-25T08:10:25.577Z,50.849514
2023-04-25T08:11:25.613Z,50.849529
2023-04-25T08:12:25.546Z,50.849537
2023-04-25T08:13:25.580Z,50.849522
2023-04-25T08:14:25.560Z,50.849529
2023-04-25T08:15:25.545Z,50.849564
2023-04-25T08:16:25.603Z,50.849525
2023-04-25T08:17:25.519Z,50.849548
2023-04-25T08:18:25.558Z,50.849545
2023-04-25T08:19:25.555Z,50.849560
2023-04-25T08:20:25.491Z,50.849537
2023-04-25T08:21:25.486Z,50.849548
2023-04-25T08:22:25.457Z,50.849556
2023-04-25T08:23:25.459Z,50.849525
2023-04-25T08:24:25.456Z,50.849541
2023-04-25T08:25:25.480Z,50.849522
2023-04-25T08:26:25.500Z,50.849499
2023-04-25T08:27:25.428Z,50.849537
2023-04-25T08:28:25.413Z,50.849533
2023-04-25T08:29:25.436Z,50.849503
2023-04-25T08:30:25.428Z,50.849522
2023-04-25T08:31:25.480Z,50.849522
2023-04-25T08:32:25.380Z,50.849541
2023-04-25T08:33:25.419Z,50.849525
2023-04-25T08:34:25.482Z,50.849567
2023-04-25T08:35:25.374Z,50.849556
2023-04-25T08:37:26.348Z,50.849567
2023-04-25T08:38:25.337Z,50.849556
2023-04-25T08:39:25.326Z,50.849541
2023-04-25T08:40:25.323Z,50.849541
2023-04-25T08:41:25.368Z,50.849537
2023-04-25T08:42:25.336Z,50.849525
2023-04-25T08:43:25.324Z,50.849529
2023-04-25T08:44:25.284Z,50.849510
2023-04-25T08:45:25.317Z,50.849525
2023-04-25T08:46:25.308Z,50.849510
2023-04-25T08:47:25.371Z,50.849491
2023-04-25T08:48:25.560Z,50.849525
2023-04-25T08:49:25.252Z,50.849506
2023-04-25T08:50:25.780Z,50.849529
2023-04-25T08:51:25.243Z,50.849487
2023-04-25T08:52:25.216Z,50.849495
2023-04-25T08:53:26.170Z,50.849525
2023-04-25T08:54:35.311Z,50.849518
2023-04-25T08:55:26.208Z,50.849510
2023-04-25T08:56:25.211Z,50.849533
2023-04-25T08:57:25.190Z,50.849537
2023-04-25T08:58:25.169Z,50.849529
2023-04-25T08:59:25.186Z,50.849564
2023-04-25T09:00:25.176Z,50.849556
2023-04-25T09:01:25.251Z,50.849586
2023-04-25T09:02:25.209Z,50.849567
2023-04-25T09:03:25.459Z,50.849545
2023-04-25T09:04:25.204Z,50.849548
2023-04-25T09:05:25.148Z,50.849552
2023-04-25T09:06:25.106Z,50.849575
2023-04-25T09:07:25.106Z,50.849529
2023-04-25T09:08:25.083Z,50.849522
2023-04-25T09:09:25.082Z,50.849495
2023-04-25T09:10:25.093Z,50.849506
2023-04-25T09:11:25.349Z,50.849522
2023-04-25T09:12:25.083Z,50.849548
2023-04-25T09:13:25.073Z,50.849552
2023-04-25T09:14:25.051Z,50.849545
2023-04-25T09:15:25.068Z,50.849537
2023-04-25T09:16:25.356Z,50.849525
2023-04-25T09:17:25.033Z,50.849525
2023-04-25T09:18:29.906Z,50.849503
2023-04-25T09:19:38.917Z,50.849537
2023-04-25T09:20:26.033Z,50.849533
2023-04-25T09:21:25.026Z,50.849499
2023-04-25T09:22:25.015Z,50.849510
2023-04-25T09:23:25.098Z,50.849525
2023-04-25T09:24:24.958Z,50.849510
2023-04-25T09:25:24.966Z,50.849529
2023-04-25T09:26:24.948Z,50.849510
2023-04-25T09:27:24.946Z,50.849525
2023-04-25T09:28:24.995Z,50.849510
2023-04-25T09:29:24.933Z,50.849533
2023-04-25T09:30:25.041Z,50.849533
2023-04-25T09:31:24.936Z,50.849518
2023-04-25T09:32:25.084Z,50.849514
2023-04-25T09:33:24.939Z,50.849518
2023-04-25T09:34:24.877Z,50.849510
2023-04-25T09:35:24.876Z,50.849518
2023-04-25T09:36:24.880Z,50.849495
2023-04-25T09:37:24.854Z,50.849464
2023-04-25T09:38:24.873Z,50.849518
2023-04-25T09:39:24.849Z,50.849564
2023-04-25T09:40:24.839Z,50.849522
2023-04-25T09:41:24.835Z,50.849533
2023-04-25T09:42:24.847Z,50.849541
2023-04-25T09:43:24.922Z,50.849506
2023-04-25T09:44:24.881Z,50.849510
2023-04-25T09:45:25.316Z,50.849503
2023-04-25T09:46:24.830Z,50.849503
2023-04-25T09:47:24.848Z,50.849514
2023-04-25T09:48:24.796Z,50.849529
2023-04-25T09:49:24.765Z,50.849514
2023-04-25T09:50:24.744Z,50.849503
2023-04-25T09:51:24.753Z,50.849495
2023-04-25T09:52:25.874Z,50.849503
2023-04-25T09:53:24.746Z,50.849472
2023-04-25T09:54:24.733Z,50.849476
2023-04-25T09:55:24.727Z,50.849503
2023-04-25T09:56:24.707Z,50.849506
2023-04-25T09:57:24.718Z,50.849514
2023-04-25T09:58:24.694Z,50.849514
2023-04-25T09:59:24.697Z,50.849510
2023-04-25T10:00:24.724Z,50.849514
2023-04-25T10:01:24.857Z,50.849491
2023-04-25T10:02:24.688Z,50.849506
2023-04-25T10:03:24.736Z,50.849518
2023-04-25T10:04:24.674Z,50.849510
2023-04-25T10:05:24.646Z,50.849487
2023-04-25T10:06:24.693Z,50.849483
2023-04-25T10:07:24.621Z,50.849514
2023-04-25T10:08:24.614Z,50.849506
2023-04-25T10:09:24.613Z,50.849510
2023-04-25T10:10:24.584Z,50.849514
2023-04-25T10:11:24.637Z,50.849510
2023-04-25T10:12:24.597Z,50.849514
2023-04-25T10:13:24.572Z,50.849503
2023-04-25T10:14:24.568Z,50.849514
2023-04-25T10:15:24.584Z,50.849503
2023-04-25T10:16:24.631Z,50.849506
2023-04-25T10:17:24.638Z,50.849491
2023-04-25T10:18:24.533Z,50.849522
2023-04-25T10:19:24.519Z,50.849495
2023-04-25T10:20:24.507Z,50.849464
2023-04-25T10:21:24.497Z,50.849499
2023-04-25T10:22:24.497Z,50.849495
2023-04-25T10:23:24.530Z,50.849483
2023-04-25T10:24:24.475Z,50.849487
2023-04-25T10:25:24.467Z,50.849476
2023-04-25T10:26:24.474Z,50.849483
2023-04-25T10:27:24.457Z,50.849483
2023-04-25T10:28:24.490Z,50.849503
2023-04-25T10:29:24.458Z,50.849510
2023-04-25T10:30:24.453Z,50.849506
2023-04-25T10:31:24.545Z,50.849483
2023-04-25T10:32:24.437Z,50.849503
2023-04-25T10:33:24.433Z,50.849518
2023-04-25T10:34:24.437Z,50.849503
2023-04-25T10:35:24.437Z,50.849510
2023-04-25T10:36:24.452Z,50.849518
2023-04-25T10:37:24.377Z,50.849533
2023-04-25T10:38:25.307Z,50.849533
2023-04-25T10:39:24.344Z,50.849499
2023-04-25T10:40:24.393Z,50.849518
2023-04-25T10:41:24.339Z,50.849510
2023-04-25T10:42:24.328Z,50.849487
2023-04-25T10:43:24.324Z,50.849476
2023-04-25T10:44:24.326Z,50.849449
2023-04-25T10:45:24.307Z,50.849468
2023-04-25T10:46:24.419Z,50.849480
2023-04-25T10:47:24.362Z,50.849533
2023-04-25T10:48:24.291Z,50.849503
2023-04-25T10:49:24.351Z,50.849491
2023-04-25T10:50:24.277Z,50.849468
2023-04-25T10:51:24.258Z,50.849453
2023-04-25T10:52:24.363Z,50.849472
2023-04-25T10:53:24.244Z,50.849499
2023-04-25T10:54:24.243Z,50.849510
2023-04-25T10:55:24.254Z,50.849491
2023-04-25T10:56:24.358Z,50.849506
2023-04-25T10:57:24.206Z,50.849514
2023-04-25T10:58:24.222Z,50.849464
2023-04-25T10:59:24.203Z,50.849495
2023-04-25T11:00:25.731Z,50.849495
2023-04-25T11:01:24.241Z,50.849491
2023-04-25T11:02:24.284Z,50.849476
2023-04-25T11:03:24.272Z,50.849483
2023-04-25T11:04:24.349Z,50.849480
2023-04-25T11:05:24.157Z,50.849476
2023-04-25T11:06:24.186Z,50.849483
2023-04-25T11:07:24.124Z,50.849499
2023-04-25T11:08:24.132Z,50.849522
2023-04-25T11:09:24.102Z,50.849487
2023-04-25T11:10:24.141Z,50.849499
2023-04-25T11:11:24.096Z,50.849529
2023-04-25T11:12:24.106Z,50.849495
2023-04-25T11:13:24.109Z,50.849506
2023-04-25T11:14:24.098Z,50.849499
2023-04-25T11:15:24.129Z,50.849525
2023-04-25T11:16:28.345Z,50.849529
2023-04-25T11:17:24.151Z,50.849503
2023-04-25T11:18:24.148Z,50.849495
2023-04-25T11:19:24.039Z,50.849510
2023-04-25T11:20:24.093Z,50.849503
2023-04-25T11:21:24.080Z,50.849525
2023-04-25T11:22:24.013Z,50.849518
2023-04-25T11:23:23.999Z,50.849503
2023-04-25T11:24:24.006Z,50.849499
2023-04-25T11:25:23.985Z,50.849506
2023-04-25T11:26:23.999Z,50.849510
2023-04-25T11:27:24.018Z,50.849499